Flight Track Log - Related Links

Times and Time Zones

All times are in EDT time to prevent confusion due to time zone crossing. See the UCA4789 flight status page for this flight to view local times or setup timezone preferences in your user account.

Time Position Orientation Groundspeed Altitude Reporting Facility
EDT Latitude Longitude Course Direction KTS MPH feet Rate Location/Type
06:45PM 42.7486 -73.8169 266° West 135 155 1,200  Level Boston Center
06:45PM 42.7458 -73.8683 266° West 128 147 3,100 1,714 Climbing Boston Center
06:46PM 42.7461 -73.8786 272° West 125 144 3,400 1,538 Climbing Boston Center
06:47PM 42.7519 -73.9325 278° West 140 161 5,100 1,869 Climbing Boston Center
06:48PM 42.7542 -73.9892 273° West 141 162 7,200 1,785 Climbing Boston Center
06:49PM 42.7572 -74.0422 275° West 142 163 8,700 1,736 Climbing Boston Center
06:50PM 42.7603 -74.0931 275° West 136 157 10,700 1,721 Climbing Boston Center
06:51PM 42.7631 -74.1428 274° West 133 153 12,200 1,355 Climbing Boston Center
06:52PM 42.7658 -74.1953 274° West 135 155 13,500 1,306 Climbing Boston Center
06:53PM 42.7689 -74.2506 274° West 136 157 14,900 1,377 Climbing Boston Center
06:54PM 42.7728 -74.3089 275° West 152 175 16,300 1,366 Climbing Boston Center
06:55PM 42.7758 -74.3689 274° West 157 181 17,700 1,328 Climbing Boston Center
06:56PM 42.7789 -74.4283 274° West 157 181 19,000 1,122 Climbing Boston Center
06:57PM 42.7825 -74.4931 274° West 157 181 20,000 500 Climbing Boston Center
06:58PM 42.7869 -74.5622 275° West 176 203 20,000  Level Boston Center
06:59PM 42.7903 -74.6439 273° West 206 237 20,000  Level Boston Center
07:00PM 42.7936 -74.7239 273° West 208 239 20,000  Level Boston Center
07:01PM 42.7978 -74.8006 274° West 207 238 20,000  Level Boston Center
07:02PM 42.8019 -74.8775 274° West 207 238 20,000  Level Boston Center
07:03PM 42.8058 -74.9550 274° West 207 238 20,000  Level Boston Center
07:04PM 42.8086 -75.0333 273° West 207 238 20,000  Level Boston Center
07:05PM 42.8139 -75.1117 275° West 207 238 20,000  Level Boston Center
07:06PM 42.8167 -75.1892 273° West 207 238 20,000  Level Boston Center
07:07PM 42.8208 -75.2664 274° West 206 237 20,000  Level Boston Center
07:08PM 42.8244 -75.3442 274° West 206 237 20,000  Level Boston Center
07:09PM 42.8286 -75.4231 274° West 206 237 20,000  Level Boston Center
07:10PM 42.8322 -75.5164 273° West 206 237 20,000  Level Boston Center
07:11PM 42.8361 -75.5944 274° West 206 237 20,000  Level Boston Center
07:12PM 42.8394 -75.6725 273° West 206 237 20,000  Level Boston Center
07:13PM 42.8436 -75.7514 274° West 207 238 20,000  Level Boston Center
07:14PM 42.8461 -75.8311 272° West 208 239 20,000  Level Boston Center
07:15PM 42.8497 -75.9106 274° West 208 239 20,000  Level Boston Center
07:16PM 42.8528 -75.9892 273° West 208 239 20,000  Level Boston Center
07:17PM 42.8567 -76.0667 274° West 208 239 20,000  Level Boston Center
07:18PM 42.8594 -76.1458 273° West 208 239 20,000  Level Boston Center
07:19PM 42.8617 -76.2244 272° West 208 239 20,000  Level Boston Center
07:20PM 42.8650 -76.3044 273° West 209 241 20,000  Level Boston Center
07:21PM 42.8689 -76.3839 274° West 209 241 20,000  Level Boston Center
07:22PM 42.8719 -76.4644 273° West 209 241 20,000  Level Boston Center
07:23PM 42.8747 -76.5625 272° West 213 245 20,000  Level Boston Center
07:24PM 42.8786 -76.6425 274° West 213 245 20,000  Level Boston Center
07:25PM 42.8806 -76.7233 272° West 213 245 20,000  Level Boston Center
07:26PM 42.8839 -76.8044 273° West 213 245 20,000  Level Boston Center
07:27PM 42.8864 -76.8856 272° West 214 246 20,000  Level Boston Center
07:29PM 42.8892 -76.9683 273° West 215 247 20,000  Level Boston Center
07:30PM 42.8775 -77.0808 262° West 226 260 20,000  Level Cleveland Center
07:31PM 42.8503 -77.1594 245° Southwest 233 268 20,000  Level Cleveland Center
07:32PM 42.8261 -77.2386 247° West 232 267 20,000  Level Cleveland Center
07:33PM 42.8017 -77.3164 247° West 230 265 20,000  Level Cleveland Center
07:34PM 42.7769 -77.3969 247° West 229 264 20,000  Level Cleveland Center
07:35PM 42.7472 -77.4917 247° West 229 264 20,000  Level Cleveland Center
07:36PM 42.7222 -77.5714 247° West 229 264 20,000  Level Cleveland Center
07:37PM 42.6975 -77.6494 247° West 229 264 20,000  Level Cleveland Center
07:38PM 42.6711 -77.7317 246° West 229 264 20,000  Level Cleveland Center
07:39PM 42.6456 -77.8147 247° West 229 264 20,000  Level Cleveland Center
07:40PM 42.6236 -77.8839 247° West 229 264 20,000  Level Cleveland Center
07:41PM 42.5986 -77.9628 247° West 229 264 20,000  Level Cleveland Center
07:42PM 42.5681 -78.0586 247° West 230 265 20,000  Level Cleveland Center
07:43PM 42.5419 -78.1392 246° West 230 265 20,000  Level Cleveland Center
07:44PM 42.5158 -78.2200 246° West 234 269 20,000  Level Cleveland Center
07:45PM 42.4900 -78.3011 247° West 234 269 20,000  Level Cleveland Center
07:46PM 42.4642 -78.3817 247° West 234 269 20,000  Level Cleveland Center
07:47PM 42.4375 -78.4628 246° West 234 269 20,000  Level Cleveland Center
07:48PM 42.4106 -78.5439 246° West 235 270 20,000  Level Cleveland Center
07:49PM 42.3847 -78.6247 247° West 235 270 20,000  Level Cleveland Center
07:50PM 42.3578 -78.7056 246° West 236 272 20,000  Level Cleveland Center
07:51PM 42.3317 -78.7875 247° West 236 272 20,000  Level Cleveland Center
07:52PM 42.3050 -78.8681 246° West 236 272 20,000  Level Cleveland Center
07:53PM 42.2758 -78.9561 246° West 237 273 20,000  Level Cleveland Center
07:54PM 42.2497 -79.0353 246° West 236 272 20,000  Level Cleveland Center
07:55PM 42.2231 -79.1156 246° West 236 272 20,000  Level Cleveland Center
07:56PM 42.1967 -79.1967 246° West 236 272 20,000  Level Cleveland Center
07:57PM 42.1639 -79.2925 245° Southwest 237 273 20,000  Level Cleveland Center
07:58PM 42.1364 -79.3733 245° Southwest 237 273 20,000  Level Cleveland Center
07:59PM 42.1089 -79.4550 246° West 240 276 20,000  Level Cleveland Center
08:00PM 42.0819 -79.5353 246° West 238 274 20,000  Level Cleveland Center
08:01PM 42.0553 -79.6147 246° West 236 272 20,000  Level Cleveland Center
08:02PM 42.0286 -79.6939 246° West 236 272 20,000  Level Cleveland Center
08:03PM 42.0017 -79.7731 245° Southwest 236 272 20,000  Level Cleveland Center
08:05PM 41.9753 -79.8497 245° Southwest 232 267 20,000  Level Cleveland Center
08:06PM 41.9433 -79.9447 246° West 232 267 20,000  Level Cleveland Center
08:07PM 41.9183 -80.0150 244° Southwest 232 267 20,000  Level Cleveland Center
08:08PM 41.8917 -80.0942 246° West 232 267 20,000  Level Cleveland Center
08:09PM 41.8636 -80.1747 245° Southwest 234 269 20,000  Level Cleveland Center
08:10PM 41.8361 -80.2547 245° Southwest 234 269 20,000  Level Cleveland Center
08:11PM 41.8078 -80.3358 245° Southwest 236 272 20,000 -541 Level Cleveland Center
08:12PM 41.7803 -80.4178 246° West 237 273 18,900 -1,131 Descending Cleveland Center
08:13PM 41.7508 -80.5006 245° Southwest 241 277 17,700 -1,082 Descending Cleveland Center
08:14PM 41.7219 -80.5861 246° West 247 284 16,700 -1,171 Descending Cleveland Center
08:15PM 41.6872 -80.6842 245° Southwest 247 284 15,300 -1,268 Descending Cleveland Center
08:16PM 41.6572 -80.7672 244° Southwest 247 284 14,100 -1,183 Descending Cleveland Center
08:16PM 41.6547 -80.7825 258° West 246 283 13,900 -1,180 Descending Cleveland Center
08:17PM 41.6264 -80.8517 241° Southwest 248 285 12,900 -1,253 Descending Cleveland Center
08:17PM 41.6103 -80.9128 251° West 252 290 12,000 -1,180 Descending Cleveland Center
08:18PM 41.6075 -80.9417 263° West 249 287 11,700 -1,180 Descending Cleveland Center
08:18PM 41.5967 -81.0003 256° West 245 282 10,800 -1,258 Descending Cleveland Center
08:19PM 41.5914 -81.0306 257° West 247 284 10,400 -1,180 Descending Cleveland Center
08:19PM 41.5806 -81.0900 256° West 243 280 9,600 -1,180 Descending Cleveland Center
08:20PM 41.5750 -81.1189 256° West 246 283 9,200 -600 Descending Cleveland Center
08:20PM 41.5650 -81.1742 256° West 240 276 9,000 -197 Descending Cleveland Center
08:21PM 41.5586 -81.2050 255° West 242 278 9,000  Level Cleveland Center
08:21PM 41.5486 -81.2667 258° West 237 273 9,000  Level Cleveland Center
08:22PM 41.5431 -81.2908 253° West 240 276 9,000 -600 Level Cleveland Center
08:22PM 41.5308 -81.3506 255° West 237 273 8,400 -885 Descending Cleveland Center
08:23PM 41.5283 -81.3744 262° West 233 268 8,100 -1,082 Descending Cleveland Center
08:23PM 41.5217 -81.4300 261° West 218 251 7,300 -1,161 Descending Cleveland Center
08:24PM 41.5186 -81.4525 260° West 218 251 6,900 -1,475 Descending Cleveland Center
08:24PM 41.5150 -81.5044 265° West 198 228 5,800 -1,574 Descending Cleveland Center
08:25PM 41.5158 -81.5272 273° West 206 237 5,300 -1,600 Descending Cleveland Center
08:25PM 41.5125 -81.5794 265° West 203 234 4,200 -1,574 Descending Cleveland Center
08:26PM 41.5128 -81.6028 271° West 204 235 3,700 -1,082 Descending Cleveland Center
08:27PM 41.5142 -81.6525 272° West 197 227 3,100 -689 Descending Cleveland Center
08:27PM 41.5150 -81.6728 273° West 198 228 3,000 -200 Descending Cleveland Center
08:28PM 41.5028 -81.7092 246° West 164 189 2,900 -194 Descending Cleveland Center
08:28PM 41.4917 -81.7317 237° Southwest 168 193 2,800 -295 Descending Cleveland Center
08:29PM 41.4758 -81.7522 224° Southwest 151 174 2,600 -590 Descending Cleveland Center
08:29PM 41.4622 -81.7742 230° Southwest 158 182 2,200 -787 Descending Cleveland Center
08:30PM 41.4486 -81.7953 229° Southwest 139 160 1,800 -590 Descending Cleveland Center
08:30PM 41.4403 -81.8092 231° Southwest 136 157 1,600 -600 Descending Cleveland Center
08:31PM 41.4289 -81.8283 232° Southwest 111 128 1,200 -689 Descending Cleveland Center
08:31PM 41.4197 -81.8428 230° Southwest 122 140 900 -621 Descending Cleveland Center

Login

Don't have an account? Register now (free) for customized features, flight alerts, and more!